createdAt,value
2024-02-20T00:00:01.598Z,10.11
2024-02-20T00:00:43.328Z,10.15
2024-02-20T00:01:25.523Z,10.09
2024-02-20T00:02:07.702Z,10.13
2024-02-20T00:02:49.491Z,10.05
2024-02-20T00:03:31.259Z,10.11
2024-02-20T00:04:13.113Z,10.04
2024-02-20T00:04:55.781Z,9.92
2024-02-20T00:05:37.924Z,10.04
2024-02-20T00:06:19.926Z,10.03
2024-02-20T00:07:01.811Z,10.04
2024-02-20T00:07:43.797Z,10.02
2024-02-20T00:08:26.031Z,10.03
2024-02-20T00:09:09.015Z,9.91
2024-02-20T00:09:50.946Z,10.05
2024-02-20T00:10:33.070Z,10.04
2024-02-20T00:11:15.732Z,10.04
2024-02-20T00:11:57.528Z,9.96
2024-02-20T00:12:39.981Z,10.07
2024-02-20T00:13:22.451Z,10.08
2024-02-20T00:14:05.020Z,10.07
2024-02-20T00:14:46.764Z,10.05
2024-02-20T00:15:28.581Z,9.98
2024-02-20T00:16:10.447Z,10.06
2024-02-20T00:16:53.820Z,9.96
2024-02-20T00:17:36.576Z,10.00
2024-02-20T00:18:18.785Z,10.04
2024-02-20T00:19:00.757Z,10.06
2024-02-20T00:19:43.981Z,10.10
2024-02-20T00:20:25.739Z,10.07
2024-02-20T00:21:07.504Z,9.97
2024-02-20T00:21:49.502Z,10.02
2024-02-20T00:22:31.251Z,10.11
2024-02-20T00:23:15.410Z,9.97
2024-02-20T00:23:57.301Z,10.00
2024-02-20T00:24:39.201Z,9.92
2024-02-20T00:25:21.564Z,10.06
2024-02-20T00:26:04.957Z,9.92
2024-02-20T00:26:46.818Z,9.96
2024-02-20T00:27:29.857Z,10.07
2024-02-20T00:28:11.762Z,9.96
2024-02-20T00:28:53.840Z,10.06
2024-02-20T00:29:35.610Z,10.04
2024-02-20T00:30:17.402Z,9.95
2024-02-20T00:30:59.275Z,9.86
2024-02-20T00:31:41.061Z,9.96
2024-02-20T00:32:22.795Z,9.95
2024-02-20T00:33:04.900Z,9.97
2024-02-20T00:33:46.912Z,9.91
2024-02-20T00:34:28.862Z,9.82
2024-02-20T00:35:10.868Z,9.93
2024-02-20T00:35:52.817Z,9.78
2024-02-20T00:36:34.615Z,9.92
2024-02-20T00:37:16.818Z,9.93
2024-02-20T00:37:58.901Z,9.93
2024-02-20T00:38:40.725Z,9.92
2024-02-20T00:39:22.525Z,9.92
2024-02-20T00:40:05.179Z,9.92
2024-02-20T00:40:47.016Z,9.84
2024-02-20T00:41:28.876Z,9.86
2024-02-20T00:42:10.786Z,9.84
2024-02-20T00:42:52.680Z,9.78
2024-02-20T00:43:34.674Z,9.75
2024-02-20T00:44:16.735Z,9.79
2024-02-20T00:45:02.520Z,9.75
2024-02-20T00:45:45.847Z,9.73
2024-02-20T00:46:27.566Z,9.61
2024-02-20T00:47:11.237Z,9.73
2024-02-20T00:47:53.271Z,9.69
2024-02-20T00:48:36.456Z,9.72
2024-02-20T00:49:18.384Z,9.71
2024-02-20T00:50:00.615Z,9.76
2024-02-20T00:50:42.524Z,9.76
2024-02-20T00:51:24.519Z,9.83
2024-02-20T00:52:06.354Z,9.66
2024-02-20T00:52:48.131Z,9.67
2024-02-20T00:53:29.933Z,9.77
2024-02-20T00:54:12.130Z,9.84
2024-02-20T00:54:53.915Z,9.70
2024-02-20T00:55:36.023Z,9.86
2024-02-20T00:56:18.311Z,9.84
2024-02-20T00:57:00.167Z,9.84
2024-02-20T00:57:42.182Z,9.80
2024-02-20T00:58:24.009Z,9.70
2024-02-20T00:59:06.148Z,9.69
2024-02-20T00:59:48.000Z,9.77
2024-02-20T01:00:29.894Z,9.90
2024-02-20T01:01:15.206Z,9.91
2024-02-20T01:01:57.177Z,9.80
2024-02-20T01:02:39.088Z,9.95
2024-02-20T01:03:20.901Z,9.96
2024-02-20T01:04:02.762Z,9.97
2024-02-20T01:04:45.035Z,9.77
2024-02-20T01:05:27.099Z,9.98
2024-02-20T01:06:09.334Z,9.93
2024-02-20T01:06:51.138Z,9.98
2024-02-20T01:07:33.217Z,9.79
2024-02-20T01:08:15.110Z,9.88
2024-02-20T01:08:56.934Z,9.99
2024-02-20T01:09:39.021Z,9.97
2024-02-20T01:10:20.805Z,9.93
2024-02-20T01:11:03.638Z,9.83
2024-02-20T01:11:45.423Z,9.88
2024-02-20T01:12:27.222Z,9.74
2024-02-20T01:13:09.342Z,9.74
2024-02-20T01:13:51.174Z,9.87
2024-02-20T01:14:33.351Z,9.69
2024-02-20T01:15:15.102Z,9.81
2024-02-20T01:15:57.337Z,9.74
2024-02-20T01:16:39.221Z,9.82
2024-02-20T01:17:21.144Z,9.77
2024-02-20T01:18:03.005Z,9.77
2024-02-20T01:18:44.824Z,9.78
2024-02-20T01:19:26.810Z,9.77
2024-02-20T01:20:09.311Z,9.62
2024-02-20T01:20:51.080Z,9.77
2024-02-20T01:21:32.952Z,9.75
2024-02-20T01:22:14.739Z,9.71
2024-02-20T01:22:56.637Z,9.76
2024-02-20T01:23:38.798Z,9.69
2024-02-20T01:24:20.665Z,9.69
2024-02-20T01:25:02.419Z,9.69
2024-02-20T01:25:44.727Z,9.83
2024-02-20T01:26:26.384Z,9.83
2024-02-20T01:27:08.202Z,9.81
2024-02-20T01:27:49.983Z,9.82
2024-02-20T01:28:32.719Z,9.84
2024-02-20T01:29:14.621Z,9.78
2024-02-20T01:29:56.888Z,9.85
2024-02-20T01:30:38.812Z,9.77
2024-02-20T01:31:20.542Z,9.88
2024-02-20T01:32:02.332Z,9.88
2024-02-20T01:32:44.595Z,9.87
2024-02-20T01:33:26.387Z,9.86
2024-02-20T01:34:08.293Z,9.81
2024-02-20T01:34:50.940Z,9.67
2024-02-20T01:35:32.692Z,9.84
2024-02-20T01:36:14.459Z,9.75
2024-02-20T01:36:56.694Z,9.85
2024-02-20T01:37:38.499Z,9.68
2024-02-20T01:38:20.341Z,9.78
2024-02-20T01:39:02.577Z,9.87
2024-02-20T01:39:44.357Z,9.87
2024-02-20T01:40:26.356Z,9.84
2024-02-20T01:41:08.235Z,9.86
2024-02-20T01:41:50.009Z,9.69
2024-02-20T01:42:31.789Z,9.82
2024-02-20T01:43:15.499Z,9.81
2024-02-20T01:43:57.383Z,9.73
2024-02-20T01:44:40.269Z,9.80
2024-02-20T01:45:22.192Z,9.81
2024-02-20T01:46:05.976Z,9.82
2024-02-20T01:46:48.378Z,9.77
2024-02-20T01:47:30.165Z,9.80
2024-02-20T01:48:12.148Z,9.79
2024-02-20T01:48:54.275Z,9.69
2024-02-20T01:49:37.905Z,9.69
2024-02-20T01:50:20.793Z,9.75
2024-02-20T01:51:03.837Z,9.63
2024-02-20T01:51:45.718Z,9.69
2024-02-20T01:52:28.124Z,9.61
2024-02-20T01:53:10.947Z,9.70
2024-02-20T01:53:53.860Z,9.62
2024-02-20T01:54:35.836Z,9.76
2024-02-20T01:55:21.051Z,9.62
2024-02-20T01:56:07.148Z,9.63
2024-02-20T01:56:50.147Z,9.71
2024-02-20T01:57:32.305Z,9.70
2024-02-20T01:58:15.101Z,9.69
2024-02-20T01:58:57.978Z,9.60
2024-02-20T01:59:39.783Z,9.63
2024-02-20T02:00:22.851Z,9.63
2024-02-20T02:01:05.215Z,9.46
2024-02-20T02:01:47.214Z,9.49
2024-02-20T02:02:28.954Z,9.54
2024-02-20T02:03:10.791Z,9.48
2024-02-20T02:03:53.725Z,9.49
2024-02-20T02:04:35.804Z,9.41
2024-02-20T02:05:17.991Z,9.41
2024-02-20T02:05:59.895Z,9.34
2024-02-20T02:07:56.266Z,9.39
2024-02-20T02:08:38.276Z,9.13
2024-02-20T02:09:20.150Z,9.21
2024-02-20T02:10:02.401Z,9.18
2024-02-20T02:10:45.283Z,9.23
2024-02-20T02:11:27.259Z,9.08
2024-02-20T02:12:09.404Z,9.13
2024-02-20T02:12:51.449Z,9.13
2024-02-20T02:13:33.403Z,8.93
2024-02-20T02:14:15.163Z,9.05
2024-02-20T02:14:57.027Z,9.06
2024-02-20T02:15:38.823Z,8.93
2024-02-20T02:16:20.632Z,9.05
2024-02-20T02:17:02.862Z,8.89
2024-02-20T02:17:44.671Z,8.89
2024-02-20T02:18:26.554Z,8.91
2024-02-20T02:19:08.730Z,8.96
2024-02-20T02:19:50.619Z,8.99
2024-02-20T02:20:32.369Z,8.93
2024-02-20T02:21:14.410Z,9.02
2024-02-20T02:21:56.141Z,9.00
2024-02-20T02:22:37.987Z,8.97
2024-02-20T02:23:20.254Z,8.90
2024-02-20T02:24:02.004Z,8.98
2024-02-20T02:24:44.762Z,8.84
2024-02-20T02:25:26.764Z,8.79
2024-02-20T02:26:11.599Z,8.95
2024-02-20T02:26:53.312Z,8.81
2024-02-20T02:27:37.536Z,8.95
2024-02-20T02:28:19.267Z,8.77
2024-02-20T02:29:01.348Z,8.80
2024-02-20T02:29:43.178Z,8.61
2024-02-20T02:30:24.935Z,8.77
2024-02-20T02:31:09.440Z,8.89
2024-02-20T02:31:51.147Z,8.92
2024-02-20T02:32:33.835Z,8.71
2024-02-20T02:33:15.817Z,8.80
2024-02-20T02:33:57.749Z,8.90
2024-02-20T02:34:39.643Z,8.80
2024-02-20T02:35:21.573Z,8.87
2024-02-20T02:36:03.629Z,8.80
2024-02-20T02:36:45.787Z,8.65
2024-02-20T02:37:27.534Z,8.69
2024-02-20T02:38:09.223Z,8.79
2024-02-20T02:38:50.916Z,8.75
2024-02-20T02:39:32.644Z,8.75
2024-02-20T02:40:14.613Z,8.76
2024-02-20T02:40:56.478Z,8.73
2024-02-20T02:41:38.194Z,8.77
2024-02-20T02:42:20.969Z,8.70
2024-02-20T02:43:02.697Z,8.62
2024-02-20T02:43:44.503Z,8.63
2024-02-20T02:44:26.340Z,8.75
2024-02-20T02:45:09.180Z,8.64
2024-02-20T02:45:50.985Z,8.75
2024-02-20T02:46:33.495Z,8.61
2024-02-20T02:47:15.289Z,8.78
2024-02-20T02:47:57.049Z,8.68
2024-02-20T02:48:38.860Z,8.74
2024-02-20T02:49:21.816Z,8.71
2024-02-20T02:50:03.981Z,8.53
2024-02-20T02:50:45.818Z,8.70
2024-02-20T02:51:27.541Z,8.73
2024-02-20T02:52:09.273Z,8.74
2024-02-20T02:52:51.099Z,8.68
2024-02-20T02:53:32.770Z,8.63
2024-02-20T02:54:14.626Z,8.75
2024-02-20T02:54:56.677Z,8.73
2024-02-20T02:55:38.510Z,8.71
2024-02-20T02:56:23.636Z,8.66
2024-02-20T02:57:05.460Z,8.75
2024-02-20T02:57:47.318Z,8.77
2024-02-20T02:58:29.206Z,8.85
2024-02-20T02:59:11.034Z,8.86
2024-02-20T02:59:52.905Z,8.74
2024-02-20T03:00:34.816Z,8.86
2024-02-20T03:01:17.421Z,8.78
2024-02-20T03:01:59.308Z,8.64
2024-02-20T03:02:42.110Z,8.54
2024-02-20T03:03:23.884Z,8.79
2024-02-20T03:04:06.211Z,8.74
2024-02-20T03:04:48.061Z,8.63
2024-02-20T03:05:30.053Z,8.71
2024-02-20T03:06:11.834Z,8.59
2024-02-20T03:06:55.001Z,8.63
2024-02-20T03:07:36.837Z,8.70
2024-02-20T03:08:18.658Z,8.61
2024-02-20T03:09:00.411Z,8.72
2024-02-20T03:09:42.361Z,8.53
2024-02-20T03:10:25.645Z,8.67
2024-02-20T03:11:08.355Z,8.65
2024-02-20T03:11:50.382Z,8.69
2024-02-20T03:12:35.887Z,8.69
2024-02-20T03:13:18.128Z,8.72
2024-02-20T03:13:59.834Z,8.76
2024-02-20T03:14:41.537Z,8.63
2024-02-20T03:15:23.424Z,8.73
2024-02-20T03:16:06.792Z,8.84
2024-02-20T03:16:48.909Z,8.85
2024-02-20T03:17:31.592Z,8.84
2024-02-20T03:18:13.480Z,8.88
2024-02-20T03:18:55.324Z,8.68
2024-02-20T03:19:37.650Z,8.84
2024-02-20T03:20:20.666Z,8.83
2024-02-20T03:21:03.017Z,8.87
2024-02-20T03:21:44.769Z,8.82
2024-02-20T03:22:26.554Z,8.76
2024-02-20T03:23:08.349Z,8.89
2024-02-20T03:23:50.081Z,8.88
2024-02-20T03:24:31.770Z,8.87
2024-02-20T03:25:16.332Z,8.86
2024-02-20T03:25:59.616Z,8.86
2024-02-20T03:26:41.337Z,8.85
2024-02-20T03:27:23.038Z,8.64
2024-02-20T03:28:07.316Z,8.81
2024-02-20T03:28:49.137Z,8.76
2024-02-20T03:29:33.682Z,8.87
2024-02-20T03:30:15.488Z,8.74
2024-02-20T03:30:57.563Z,8.80
2024-02-20T03:31:40.356Z,8.82
2024-02-20T03:32:23.777Z,8.92
2024-02-20T03:33:07.417Z,8.91
2024-02-20T03:33:49.343Z,8.79
2024-02-20T03:34:31.151Z,8.81
2024-02-20T03:35:21.895Z,8.96
2024-02-20T03:36:03.923Z,8.91
2024-02-20T03:36:45.946Z,8.95
2024-02-20T03:37:27.784Z,8.94
2024-02-20T03:38:10.387Z,8.93
2024-02-20T03:38:52.083Z,8.75
2024-02-20T03:39:33.760Z,8.93
2024-02-20T03:40:16.523Z,8.99
2024-02-20T03:40:58.367Z,8.88
2024-02-20T03:41:40.136Z,8.80
2024-02-20T03:42:22.127Z,8.80
2024-02-20T03:43:04.938Z,8.99
2024-02-20T03:43:46.742Z,8.97
2024-02-20T03:44:28.478Z,8.87
2024-02-20T03:45:10.492Z,8.96
2024-02-20T03:45:52.203Z,9.02
2024-02-20T03:46:34.152Z,8.98
2024-02-20T03:47:16.175Z,8.89
2024-02-20T03:47:58.329Z,8.91
2024-02-20T03:48:40.356Z,8.99
2024-02-20T03:49:22.345Z,9.04
2024-02-20T03:50:05.704Z,9.06
2024-02-20T03:50:47.618Z,8.90
2024-02-20T03:51:29.349Z,8.89
2024-02-20T03:52:11.091Z,9.08
2024-02-20T03:52:52.818Z,9.10
2024-02-20T03:53:34.558Z,9.02
2024-02-20T03:54:16.234Z,9.00
2024-02-20T03:54:57.977Z,8.95
2024-02-20T03:55:39.737Z,9.17
2024-02-20T03:56:21.573Z,9.15
2024-02-20T03:57:04.766Z,9.05
2024-02-20T03:57:46.457Z,9.15
2024-02-20T03:58:28.429Z,9.10
2024-02-20T03:59:10.188Z,9.10
2024-02-20T03:59:54.892Z,9.12
2024-02-20T04:00:36.631Z,9.10
2024-02-20T04:01:18.760Z,9.02
2024-02-20T04:02:01.180Z,9.08
2024-02-20T04:02:44.176Z,9.06
2024-02-20T04:03:26.029Z,9.00
2024-02-20T04:04:07.788Z,8.94
2024-02-20T04:04:50.218Z,8.77
2024-02-20T04:05:34.446Z,8.77
2024-02-20T04:06:17.027Z,8.88
2024-02-20T04:06:58.758Z,8.84
2024-02-20T04:07:41.067Z,8.78
2024-02-20T04:08:22.878Z,8.92
2024-02-20T04:09:05.584Z,8.84
2024-02-20T04:09:47.376Z,8.92
2024-02-20T04:10:29.148Z,8.84
2024-02-20T04:11:10.978Z,8.79
2024-02-20T04:11:52.804Z,8.71
2024-02-20T04:12:34.499Z,8.86
2024-02-20T04:13:16.545Z,8.86
2024-02-20T04:13:58.369Z,8.80
2024-02-20T04:14:40.110Z,8.72
2024-02-20T04:15:22.125Z,8.76
2024-02-20T04:16:04.142Z,8.81
2024-02-20T04:16:45.981Z,8.81
2024-02-20T04:17:27.757Z,8.70
2024-02-20T04:18:09.671Z,8.78
2024-02-20T04:18:51.651Z,8.66
2024-02-20T04:19:33.564Z,8.84
2024-02-20T04:20:15.516Z,8.84
2024-02-20T04:20:57.299Z,8.84
2024-02-20T04:21:39.071Z,8.83
2024-02-20T04:22:20.818Z,8.75
2024-02-20T04:23:04.549Z,8.73
2024-02-20T04:23:46.358Z,8.69
2024-02-20T04:24:28.430Z,8.52
2024-02-20T04:25:10.327Z,8.73
2024-02-20T04:25:52.234Z,8.77
2024-02-20T04:26:34.036Z,8.69
2024-02-20T04:27:15.845Z,8.63
2024-02-20T04:27:58.990Z,8.72
2024-02-20T04:28:40.889Z,8.82
2024-02-20T04:29:22.718Z,8.82
2024-02-20T04:30:05.591Z,8.76
2024-02-20T04:30:47.306Z,8.76
2024-02-20T04:31:29.099Z,8.62
2024-02-20T04:32:10.882Z,8.73
2024-02-20T04:32:52.901Z,8.60
2024-02-20T04:33:34.772Z,8.78
2024-02-20T04:34:16.601Z,8.78
2024-02-20T04:34:58.829Z,8.67
2024-02-20T04:35:40.700Z,8.65
2024-02-20T04:36:23.617Z,8.73
2024-02-20T04:37:05.357Z,8.57
2024-02-20T04:37:48.934Z,8.63
2024-02-20T04:38:30.821Z,8.60
2024-02-20T04:39:12.579Z,8.74
2024-02-20T04:39:54.384Z,8.61
2024-02-20T04:40:36.167Z,8.72
2024-02-20T04:41:25.772Z,8.71
2024-02-20T04:42:07.457Z,8.70
2024-02-20T04:42:49.134Z,8.64
2024-02-20T04:43:30.881Z,8.54
2024-02-20T04:44:12.642Z,8.52
2024-02-20T04:44:54.370Z,8.58
2024-02-20T04:45:36.338Z,8.53
2024-02-20T04:46:18.065Z,8.56
2024-02-20T04:47:01.303Z,8.60
2024-02-20T04:47:43.054Z,8.38
2024-02-20T04:48:24.830Z,8.50
2024-02-20T04:49:06.603Z,8.50
2024-02-20T04:49:48.334Z,8.49
2024-02-20T04:50:30.081Z,8.29
2024-02-20T04:51:11.749Z,8.45
2024-02-20T04:51:53.463Z,8.35
2024-02-20T04:52:35.470Z,8.39
2024-02-20T04:53:17.259Z,8.46
2024-02-20T04:53:58.980Z,8.51
2024-02-20T04:54:40.667Z,8.55
2024-02-20T04:55:22.503Z,8.58
2024-02-20T04:56:04.516Z,8.59
2024-02-20T04:56:46.191Z,8.60
2024-02-20T04:57:27.864Z,8.58
2024-02-20T04:58:10.715Z,8.48
2024-02-20T04:58:52.607Z,8.43
2024-02-20T04:59:34.413Z,8.51
2024-02-20T05:00:17.905Z,8.41
2024-02-20T05:00:59.786Z,8.38
2024-02-20T05:01:41.714Z,8.46
2024-02-20T05:02:23.574Z,8.59
2024-02-20T05:03:05.924Z,8.52
2024-02-20T05:03:47.875Z,8.60
2024-02-20T05:04:29.903Z,8.52
2024-02-20T05:05:12.002Z,8.61
2024-02-20T05:05:53.789Z,8.60
2024-02-20T05:06:35.561Z,8.54
2024-02-20T05:07:17.503Z,8.50
2024-02-20T05:07:59.518Z,8.46
2024-02-20T05:08:41.300Z,8.66
2024-02-20T05:09:23.061Z,8.65
2024-02-20T05:10:08.458Z,8.64
2024-02-20T05:10:50.373Z,8.67
2024-02-20T05:11:32.536Z,8.55
2024-02-20T05:12:14.577Z,8.65
2024-02-20T05:12:56.316Z,8.59
2024-02-20T05:13:38.090Z,8.64
2024-02-20T05:14:19.861Z,8.61
2024-02-20T05:15:01.549Z,8.44
2024-02-20T05:15:43.372Z,8.55
2024-02-20T05:16:25.204Z,8.55
2024-02-20T05:17:06.916Z,8.42
2024-02-20T05:17:48.628Z,8.60
2024-02-20T05:18:30.584Z,8.45
2024-02-20T05:19:12.619Z,8.54
2024-02-20T05:19:54.518Z,8.57
2024-02-20T05:20:36.238Z,8.61
2024-02-20T05:21:17.910Z,8.58
2024-02-20T05:21:59.890Z,8.63
2024-02-20T05:22:41.665Z,8.51
2024-02-20T05:23:23.400Z,8.62
2024-02-20T05:24:05.382Z,8.49
2024-02-20T05:24:47.560Z,8.49
2024-02-20T05:25:29.257Z,8.43
2024-02-20T05:26:11.050Z,8.51
2024-02-20T05:26:52.818Z,8.47
2024-02-20T05:27:34.626Z,8.56
2024-02-20T05:28:16.624Z,8.47
2024-02-20T05:28:58.360Z,8.54
2024-02-20T05:29:40.197Z,8.39
2024-02-20T05:30:22.008Z,8.58
2024-02-20T05:31:31.456Z,8.46
2024-02-20T05:32:13.250Z,8.48
2024-02-20T05:32:55.189Z,8.62
2024-02-20T05:33:37.016Z,8.51
2024-02-20T05:34:18.936Z,8.60
2024-02-20T05:35:00.838Z,8.47
2024-02-20T05:35:44.031Z,8.62
2024-02-20T05:36:34.658Z,8.58
2024-02-20T05:37:16.604Z,8.54
2024-02-20T05:38:01.257Z,8.52
2024-02-20T05:38:42.984Z,8.45
2024-02-20T05:39:26.497Z,8.32
2024-02-20T05:40:13.455Z,8.45
2024-02-20T05:40:56.567Z,8.47
2024-02-20T05:41:38.249Z,8.43
2024-02-20T05:42:20.025Z,8.40
2024-02-20T05:43:02.078Z,8.42
2024-02-20T05:43:43.890Z,8.26
2024-02-20T05:44:25.811Z,8.42
2024-02-20T05:45:09.007Z,8.30
2024-02-20T05:45:50.733Z,8.26
2024-02-20T05:46:33.641Z,8.26
2024-02-20T05:47:15.559Z,8.33
2024-02-20T05:47:57.541Z,8.12
2024-02-20T05:48:39.374Z,8.27
2024-02-20T05:49:21.576Z,8.11
2024-02-20T05:50:03.927Z,8.11
2024-02-20T05:50:45.887Z,8.22
2024-02-20T05:51:29.215Z,8.16
2024-02-20T05:52:13.910Z,8.10
2024-02-20T05:52:56.885Z,8.18
2024-02-20T05:53:38.601Z,8.06
2024-02-20T05:54:20.670Z,7.91
2024-02-20T05:55:02.502Z,8.15
2024-02-20T05:55:44.253Z,8.13
2024-02-20T05:56:26.332Z,8.08
2024-02-20T05:57:08.061Z,8.02
2024-02-20T05:57:50.225Z,8.01
2024-02-20T05:58:32.473Z,7.98
2024-02-20T05:59:17.000Z,7.79
2024-02-20T05:59:58.766Z,7.80
2024-02-20T06:00:40.725Z,7.78
2024-02-20T06:01:22.586Z,7.62
2024-02-20T06:02:04.605Z,7.77
2024-02-20T06:02:47.021Z,7.77
2024-02-20T06:03:28.919Z,7.74
2024-02-20T06:04:10.772Z,7.62
2024-02-20T06:04:53.005Z,7.61
2024-02-20T06:05:35.002Z,7.73
2024-02-20T06:06:17.058Z,7.77
2024-02-20T06:06:58.918Z,7.62
2024-02-20T06:07:40.778Z,7.78
2024-02-20T06:08:24.786Z,7.80
2024-02-20T06:09:06.558Z,7.75
2024-02-20T06:09:48.325Z,7.67
2024-02-20T06:10:30.185Z,7.72
2024-02-20T06:11:19.719Z,7.72
2024-02-20T06:12:01.711Z,7.69
2024-02-20T06:12:43.456Z,7.66
2024-02-20T06:13:25.178Z,7.59
2024-02-20T06:14:07.573Z,7.57
2024-02-20T06:14:49.408Z,7.62
2024-02-20T06:15:31.229Z,7.49
2024-02-20T06:16:13.307Z,7.68
2024-02-20T06:16:55.107Z,7.74
2024-02-20T06:17:36.911Z,7.80
2024-02-20T06:18:21.423Z,7.78
2024-02-20T06:19:03.285Z,7.92
2024-02-20T06:19:45.232Z,7.90
2024-02-20T06:20:27.083Z,7.87
2024-02-20T06:21:10.277Z,8.08
2024-02-20T06:21:52.180Z,7.57
2024-02-20T06:22:33.989Z,8.05
2024-02-20T06:23:16.047Z,8.17
2024-02-20T06:23:57.745Z,8.24
2024-02-20T06:24:39.520Z,8.25
2024-02-20T06:25:21.275Z,8.42
2024-02-20T06:26:04.036Z,8.34
2024-02-20T06:26:45.792Z,8.32
2024-02-20T06:27:27.607Z,8.40
2024-02-20T06:28:10.589Z,8.46
2024-02-20T06:28:52.775Z,8.37
2024-02-20T06:29:37.147Z,8.41
2024-02-20T06:30:19.256Z,8.31
2024-02-20T06:31:04.497Z,8.35
2024-02-20T06:31:50.464Z,8.29
2024-02-20T06:32:34.203Z,8.09
2024-02-20T06:33:17.264Z,8.12
2024-02-20T06:33:59.212Z,8.04
2024-02-20T06:34:42.838Z,8.05
2024-02-20T06:35:24.662Z,8.11
2024-02-20T06:36:06.763Z,8.11
2024-02-20T06:36:48.461Z,7.97
2024-02-20T06:37:30.296Z,8.09
2024-02-20T06:38:12.102Z,7.92
2024-02-20T06:38:53.841Z,8.01
2024-02-20T06:39:35.700Z,8.07
2024-02-20T06:40:17.570Z,8.04
2024-02-20T06:41:00.808Z,8.00
2024-02-20T06:41:42.539Z,7.91
2024-02-20T06:42:24.236Z,8.05
2024-02-20T06:43:06.018Z,8.07
2024-02-20T06:43:47.871Z,7.85
2024-02-20T06:44:29.687Z,7.98
2024-02-20T06:45:13.107Z,7.99
2024-02-20T06:45:55.474Z,8.16
2024-02-20T06:46:43.561Z,8.13
2024-02-20T06:47:25.409Z,8.16
2024-02-20T06:48:08.329Z,8.14
2024-02-20T06:48:50.251Z,8.02
2024-02-20T06:49:32.095Z,8.23
2024-02-20T06:50:14.308Z,8.24
2024-02-20T06:50:56.206Z,8.27
2024-02-20T06:51:37.922Z,8.21
2024-02-20T06:52:20.296Z,8.33
2024-02-20T06:53:02.039Z,8.29
2024-02-20T06:53:46.566Z,8.46
2024-02-20T06:54:29.610Z,8.37
2024-02-20T06:55:11.476Z,8.55
2024-02-20T06:55:53.308Z,8.60
2024-02-20T06:56:35.089Z,8.64
2024-02-20T06:57:16.811Z,8.72
2024-02-20T06:57:59.898Z,8.76
2024-02-20T06:58:41.862Z,8.64
2024-02-20T06:59:23.612Z,8.72
2024-02-20T07:00:06.034Z,8.85
2024-02-20T07:00:48.444Z,8.86
2024-02-20T07:01:32.237Z,8.79
2024-02-20T07:02:14.202Z,8.88
2024-02-20T07:02:56.198Z,8.86
2024-02-20T07:03:37.969Z,8.80
2024-02-20T07:04:19.734Z,8.69
2024-02-20T07:05:01.592Z,8.82
2024-02-20T07:05:43.678Z,8.73
2024-02-20T07:06:25.921Z,8.70
2024-02-20T07:07:07.702Z,8.77
2024-02-20T07:07:49.990Z,8.54
2024-02-20T07:08:31.746Z,8.67
2024-02-20T07:09:14.740Z,8.64
2024-02-20T07:09:56.412Z,8.72
2024-02-20T07:10:38.523Z,8.73
2024-02-20T07:11:20.479Z,8.66
2024-02-20T07:12:02.600Z,8.55
2024-02-20T07:12:44.499Z,8.50
2024-02-20T07:13:26.395Z,8.64
2024-02-20T07:14:08.162Z,8.64
2024-02-20T07:14:49.931Z,8.56
2024-02-20T07:15:31.759Z,8.71
2024-02-20T07:16:15.060Z,8.70
2024-02-20T07:16:56.841Z,8.62
2024-02-20T07:17:38.717Z,8.75
2024-02-20T07:18:20.644Z,8.75
2024-02-20T07:19:03.993Z,8.82
2024-02-20T07:19:45.944Z,8.82
2024-02-20T07:20:27.900Z,8.66
2024-02-20T07:21:09.773Z,8.88
2024-02-20T07:21:51.477Z,8.76
2024-02-20T07:22:33.930Z,8.74
2024-02-20T07:23:15.961Z,8.81
2024-02-20T07:23:57.728Z,8.81
2024-02-20T07:24:39.461Z,8.73
2024-02-20T07:25:22.802Z,8.72
2024-02-20T07:26:04.960Z,8.64
2024-02-20T07:26:47.420Z,8.61
2024-02-20T07:27:29.252Z,8.34
2024-02-20T07:28:12.435Z,8.41
2024-02-20T07:28:54.232Z,8.45
2024-02-20T07:29:35.957Z,8.34
2024-02-20T07:30:18.047Z,8.41
2024-02-20T07:30:59.942Z,8.42
2024-02-20T07:31:41.835Z,8.30
2024-02-20T07:32:23.601Z,8.30
2024-02-20T07:33:05.584Z,8.38
2024-02-20T07:33:50.832Z,8.27
2024-02-20T07:34:42.256Z,8.42
2024-02-20T07:35:24.395Z,8.46
2024-02-20T07:36:06.506Z,8.39
2024-02-20T07:36:49.851Z,8.35
2024-02-20T07:37:31.965Z,8.27
2024-02-20T07:38:13.741Z,8.48
2024-02-20T07:38:55.678Z,8.51
2024-02-20T07:39:37.896Z,8.55
2024-02-20T07:40:20.530Z,8.56
2024-02-20T07:41:04.409Z,8.53
2024-02-20T07:41:46.366Z,8.70
2024-02-20T07:42:28.145Z,8.63
2024-02-20T07:43:09.867Z,8.54
2024-02-20T07:43:51.677Z,8.73
2024-02-20T07:44:33.395Z,8.83
2024-02-20T07:45:15.172Z,8.86
2024-02-20T07:45:56.996Z,8.88
2024-02-20T07:46:38.867Z,8.79
2024-02-20T07:47:20.745Z,8.90
2024-02-20T07:48:02.524Z,8.79
2024-02-20T07:48:44.481Z,8.84
2024-02-20T07:49:26.533Z,8.83
2024-02-20T07:50:08.907Z,8.87
2024-02-20T07:50:50.810Z,8.87
2024-02-20T07:51:34.619Z,9.05
2024-02-20T07:52:16.642Z,8.91
2024-02-20T07:52:58.397Z,8.96
2024-02-20T07:53:40.199Z,8.95
2024-02-20T07:54:21.960Z,9.13
2024-02-20T07:55:04.371Z,9.13
2024-02-20T07:55:46.564Z,9.29
2024-02-20T07:56:30.410Z,9.40
2024-02-20T07:57:12.334Z,9.38
2024-02-20T07:57:54.219Z,9.64
2024-02-20T07:58:44.402Z,9.65
2024-02-20T07:59:26.917Z,9.85
2024-02-20T08:00:12.477Z,9.94
2024-02-20T08:00:55.762Z,9.78
2024-02-20T08:01:38.162Z,9.89
2024-02-20T08:02:19.989Z,9.96
2024-02-20T08:03:01.817Z,10.06
2024-02-20T08:03:44.763Z,9.93
2024-02-20T08:04:26.650Z,10.09
2024-02-20T08:05:11.025Z,10.17
2024-02-20T08:05:52.986Z,10.08
2024-02-20T08:06:34.953Z,10.24
2024-02-20T08:07:16.924Z,10.39
2024-02-20T08:07:59.202Z,10.35
2024-02-20T08:08:41.257Z,10.63
2024-02-20T08:09:23.100Z,10.62
2024-02-20T08:10:07.185Z,10.84
2024-02-20T08:10:49.070Z,10.93
2024-02-20T08:11:30.879Z,11.04
2024-02-20T08:12:12.689Z,10.96
2024-02-20T08:12:54.464Z,11.10
2024-02-20T08:13:36.329Z,11.05
2024-02-20T08:14:20.634Z,11.17
2024-02-20T08:15:02.386Z,11.20
2024-02-20T08:15:44.183Z,11.13
2024-02-20T08:16:25.963Z,11.04
2024-02-20T08:17:07.914Z,11.09
2024-02-20T08:17:49.797Z,10.93
2024-02-20T08:18:31.613Z,10.90
2024-02-20T08:19:13.440Z,11.14
2024-02-20T08:19:55.544Z,11.18
2024-02-20T08:20:37.359Z,11.15
2024-02-20T08:21:19.572Z,11.35
2024-02-20T08:22:01.595Z,11.46
2024-02-20T08:22:44.208Z,11.45
2024-02-20T08:23:25.986Z,11.47
2024-02-20T08:24:08.103Z,11.58
2024-02-20T08:24:50.232Z,11.56
2024-02-20T08:25:31.991Z,11.43
2024-02-20T08:26:13.691Z,11.46
2024-02-20T08:26:58.321Z,11.64
2024-02-20T08:27:40.051Z,11.66
2024-02-20T08:28:21.867Z,11.73
2024-02-20T08:29:04.171Z,11.71
2024-02-20T08:29:45.915Z,11.85
2024-02-20T08:30:28.830Z,11.88
2024-02-20T08:31:10.757Z,12.07
2024-02-20T08:31:52.639Z,11.88
2024-02-20T08:32:34.510Z,11.78
2024-02-20T08:33:16.442Z,11.71
2024-02-20T08:33:58.326Z,11.93
2024-02-20T08:34:40.200Z,12.07
2024-02-20T08:35:22.158Z,12.10
2024-02-20T08:36:04.536Z,12.30
2024-02-20T08:36:46.297Z,12.44
2024-02-20T08:37:28.182Z,12.56
2024-02-20T08:38:10.546Z,12.67
2024-02-20T08:38:52.528Z,12.76
2024-02-20T08:39:34.294Z,12.77
2024-02-20T08:40:16.522Z,12.62
2024-02-20T08:40:58.676Z,12.86
2024-02-20T08:41:41.057Z,12.95
2024-02-20T08:42:22.928Z,12.82
2024-02-20T08:43:04.915Z,12.91
2024-02-20T08:43:49.687Z,12.90
2024-02-20T08:44:31.607Z,13.01
2024-02-20T08:45:15.210Z,12.92
2024-02-20T08:45:57.182Z,13.04
2024-02-20T08:46:39.091Z,12.91
2024-02-20T08:47:22.442Z,12.82
2024-02-20T08:48:04.504Z,12.56
2024-02-20T08:48:47.412Z,12.54
2024-02-20T08:49:32.314Z,12.43
2024-02-20T08:50:18.263Z,12.38
2024-02-20T08:51:00.449Z,12.49
2024-02-20T08:51:43.657Z,12.51
2024-02-20T08:52:25.592Z,12.48
2024-02-20T08:53:11.654Z,12.59
2024-02-20T08:53:53.555Z,12.52
2024-02-20T08:54:36.220Z,12.58
2024-02-20T08:55:18.103Z,12.56
2024-02-20T08:55:59.994Z,12.77
2024-02-20T08:56:41.790Z,12.47
2024-02-20T08:57:24.118Z,12.73
2024-02-20T08:58:06.066Z,12.99
2024-02-20T08:58:50.482Z,12.81
2024-02-20T08:59:32.185Z,12.90
2024-02-20T09:00:14.631Z,12.92
2024-02-20T09:00:58.293Z,12.77
2024-02-20T09:01:41.846Z,12.84
2024-02-20T09:02:23.873Z,12.91
2024-02-20T09:03:06.263Z,12.90
2024-02-20T09:03:48.244Z,12.70
2024-02-20T09:04:30.430Z,12.57
2024-02-20T09:05:12.694Z,12.53
2024-02-20T09:05:54.844Z,12.46
2024-02-20T09:06:36.869Z,12.21
2024-02-20T09:07:19.270Z,12.15
2024-02-20T09:08:01.259Z,11.91
2024-02-20T09:08:43.071Z,11.95
2024-02-20T09:09:25.313Z,11.84
2024-02-20T09:10:07.815Z,11.60
2024-02-20T09:10:50.013Z,11.69
2024-02-20T09:11:31.962Z,11.54
2024-02-20T09:12:13.752Z,11.42
2024-02-20T09:12:55.576Z,11.22
2024-02-20T09:13:37.731Z,11.17
2024-02-20T09:14:20.624Z,11.04
2024-02-20T09:15:03.204Z,11.18
2024-02-20T09:15:46.875Z,11.30
2024-02-20T09:16:28.821Z,11.33
2024-02-20T09:17:11.090Z,11.36
2024-02-20T09:17:52.910Z,11.59
2024-02-20T09:18:36.053Z,11.91
2024-02-20T09:19:18.277Z,11.94
2024-02-20T09:20:00.320Z,12.11
2024-02-20T09:20:42.253Z,12.18